Time;durP1;ratioP1;P1;durP2;ratioP2;P2;SDS_P1;SDS_P2;PMS_P1;PMS_P2;Temp;Humidity;BMP_temperature;BMP_pressure;BME280_temperature;BME280_humidity;BME280_pressure;Samples;Min_cycle;Max_cycle;Signal;HPM_P1;HPM_P2
2021/11/24 13:12:13;;;;;;;26.75;14.75;;;4.00;84.10;;;;;;5082440;28;20436;-63
2021/11/24 13:14:42;;;;;;;24.98;14.15;;;3.40;85.40;;;;;;5076779;28;20027;-63
2021/11/24 13:17:19;;;;;;;24.20;13.90;;;3.50;86.70;;;;;;5073488;28;20024;-67
2021/11/24 13:19:54;;;;;;;22.13;13.93;;;3.80;88.50;;;;;;5071686;28;20032;-68
2021/11/24 13:22:50;;;;;;;20.45;13.43;;;4.40;86.50;;;;;;5068723;28;20074;-68
2021/11/24 13:25:24;;;;;;;20.98;13.18;;;5.10;83.90;;;;;;5079113;28;20016;-67
2021/11/24 13:28:04;;;;;;;20.90;14.65;;;5.50;82.70;;;;;;5068674;28;20086;-69
2021/11/24 13:30:52;;;;;;;20.58;14.32;;;5.70;78.50;;;;;;5058610;28;20025;-67
2021/11/24 13:33:20;;;;;;;22.95;15.45;;;5.60;78.10;;;;;;5048550;28;20021;-68
2021/11/24 13:35:45;;;;;;;21.52;14.90;;;5.50;78.40;;;;;;5048520;28;20025;-66
2021/11/24 13:38:33;;;;;;;21.15;13.38;;;5.50;78.40;;;;;;5048366;28;20029;-66
2021/11/24 13:41:15;;;;;;;20.92;14.18;;;5.40;78.30;;;;;;5048453;28;20056;-67
2021/11/24 13:43:51;;;;;;;20.70;13.88;;;5.10;77.30;;;;;;5071418;28;20108;-67
2021/11/24 13:46:23;;;;;;;22.60;14.30;;;4.80;78.30;;;;;;5068566;28;20035;-69
2021/11/24 13:49:03;;;;;;;22.13;14.88;;;4.40;79.40;;;;;;5075338;28;20020;-68
2021/11/24 13:51:29;;;;;;;24.30;15.23;;;4.20;80.10;;;;;;5088853;28;20360;-67
2021/11/24 13:54:10;;;;;;;22.75;14.77;;;4.00;80.60;;;;;;5088387;28;20029;-67
2021/11/24 13:56:49;;;;;;;25.10;15.43;;;3.80;81.10;;;;;;5088084;28;20020;-66
2021/11/24 13:59:21;;;;;;;22.75;14.30;;;3.70;81.60;;;;;;5088009;28;20021;-67
2021/11/24 14:01:48;;;;;;;23.13;14.68;;;3.50;82.20;;;;;;5061401;28;20035;-66
2021/11/24 14:04:27;;;;;;;23.35;15.35;;;3.30;82.90;;;;;;5065821;28;20040;-66
2021/11/24 14:06:53;;;;;;;26.88;16.05;;;3.20;83.20;;;;;;5087764;28;20028;-65
2021/11/24 14:09:23;;;;;;;26.73;15.98;;;3.10;83.80;;;;;;5087701;28;20391;-66
2021/11/24 14:11:58;;;;;;;31.98;18.55;;;3.00;84.20;;;;;;5087759;28;20159;-66
2021/11/24 14:14:29;;;;;;;29.73;18.63;;;2.90;84.40;;;;;;5087602;28;20040;-66
2021/11/24 14:17:01;;;;;;;27.85;17.30;;;2.80;84.60;;;;;;5087737;28;20016;-65
2021/11/24 14:19:33;;;;;;;29.48;18.50;;;2.70;85.00;;;;;;5087515;28;20374;-66
2021/11/24 14:21:59;;;;;;;31.63;18.88;;;2.60;85.30;;;;;;5070131;28;20126;-66
2021/11/24 14:24:25;;;;;;;29.27;18.73;;;2.60;85.20;;;;;;5054592;28;20077;-67
2021/11/24 14:26:54;;;;;;;37.20;21.58;;;2.50;85.60;;;;;;5057672;28;20025;-67
2021/11/24 14:29:20;;;;;;;41.90;24.67;;;2.50;86.00;;;;;;5061432;28;20029;-67
2021/11/24 14:31:57;;;;;;;45.25;24.52;;;2.50;86.40;;;;;;5073982;28;20093;-67
2021/11/24 14:34:24;;;;;;;38.90;22.73;;;2.40;86.80;;;;;;5074060;28;20463;-68
2021/11/24 14:36:51;;;;;;;41.28;24.77;;;2.30;87.20;;;;;;5053751;28;20025;-63
2021/11/24 14:39:17;;;;;;;36.65;23.50;;;2.30;87.30;;;;;;5035070;28;20026;-64
2021/11/24 14:41:45;;;;;;;32.55;20.80;;;2.30;87.50;;;;;;5053547;28;20094;-64
2021/11/24 14:44:21;;;;;;;32.65;20.23;;;2.20;87.80;;;;;;5059494;28;20380;-64
2021/11/24 14:46:48;;;;;;;32.72;19.77;;;2.20;88.20;;;;;;5067296;28;20021;-65
2021/11/24 14:49:17;;;;;;;32.75;19.92;;;2.10;88.00;;;;;;5073738;28;20028;-65
2021/11/24 14:51:47;;;;;;;36.88;20.13;;;2.10;88.40;;;;;;5073966;28;20027;-65
2021/11/24 14:54:14;;;;;;;32.38;19.17;;;2.10;88.80;;;;;;5073552;28;20032;-64
2021/11/24 14:56:40;;;;;;;34.42;20.42;;;2.00;88.90;;;;;;5057634;28;20025;-63
2021/11/24 14:59:06;;;;;;;34.92;20.05;;;2.00;89.20;;;;;;5055218;28;20025;-65
2021/11/24 15:01:32;;;;;;;38.88;21.85;;;1.90;89.00;;;;;;5053785;28;20468;-65
2021/11/24 15:03:58;;;;;;;35.38;20.05;;;1.90;89.10;;;;;;5053854;28;20127;-64
2021/11/24 15:06:23;;;;;;;30.73;18.10;;;1.80;89.00;;;;;;5073202;28;20036;-66
2021/11/24 15:08:49;;;;;;;30.52;17.77;;;1.80;89.30;;;;;;5060584;28;20051;-64
2021/11/24 15:11:15;;;;;;;28.77;17.17;;;1.80;89.40;;;;;;5051923;28;20045;-64
2021/11/24 15:13:41;;;;;;;26.90;16.20;;;1.70;89.30;;;;;;5053060;28;20437;-65
2021/11/24 15:16:12;;;;;;;28.42;17.55;;;1.70;89.30;;;;;;5053102;28;20118;-66
2021/11/24 15:18:38;;;;;;;26.52;16.45;;;1.70;89.60;;;;;;5058271;28;20021;-66
2021/11/24 15:21:05;;;;;;;26.73;16.55;;;1.70;89.50;;;;;;5062588;28;20032;-64
2021/11/24 15:23:32;;;;;;;25.67;16.17;;;1.70;89.50;;;;;;5052849;28;20094;-64
2021/11/24 15:25:58;;;;;;;28.55;17.23;;;1.70;89.70;;;;;;5052993;28;20029;-65
2021/11/24 15:28:24;;;;;;;25.25;16.33;;;1.70;89.70;;;;;;5052691;28;20403;-64
2021/11/24 15:30:51;;;;;;;28.10;17.42;;;1.80;89.70;;;;;;5062440;28;20057;-67
2021/11/24 15:33:17;;;;;;;26.38;16.35;;;1.70;89.80;;;;;;5061850;28;20027;-66
2021/11/24 15:35:43;;;;;;;28.73;17.52;;;1.80;90.00;;;;;;5060560;28;20120;-67
2021/11/24 15:38:09;;;;;;;27.88;18.65;;;1.80;90.00;;;;;;5055408;28;20100;-66
2021/11/24 15:40:36;;;;;;;27.73;17.77;;;1.80;90.00;;;;;;5051336;28;20028;-67
2021/11/24 15:43:02;;;;;;;29.77;19.08;;;1.90;90.00;;;;;;5052796;28;20361;-67
2021/11/24 15:45:32;;;;;;;28.55;18.27;;;2.00;89.90;;;;;;5052729;28;20021;-66
2021/11/24 15:47:59;;;;;;;27.20;17.60;;;2.00;89.70;;;;;;5052570;28;20440;-67
2021/11/24 15:50:25;;;;;;;29.70;18.80;;;2.00;89.60;;;;;;5052763;28;20083;-66
2021/11/24 15:52:52;;;;;;;31.35;20.10;;;2.10;89.40;;;;;;5046701;28;20030;-67
2021/11/24 15:55:18;;;;;;;33.15;22.05;;;2.20;88.90;;;;;;5045261;28;20380;-66
2021/11/24 15:57:43;;;;;;;33.65;20.90;;;2.30;88.50;;;;;;5051134;28;20021;-66
2021/11/24 16:00:11;;;;;;;31.63;19.60;;;2.30;88.50;;;;;;5052628;28;20032;-67
2021/11/24 16:02:39;;;;;;;32.78;20.45;;;2.30;88.00;;;;;;5052432;28;20025;-65
2021/11/24 16:05:06;;;;;;;34.42;21.48;;;2.30;87.60;;;;;;5050717;28;20025;-66
2021/11/24 16:07:32;;;;;;;36.17;21.67;;;2.40;87.40;;;;;;5052312;28;20211;-67
2021/11/24 16:09:58;;;;;;;34.08;20.63;;;2.40;87.10;;;;;;5051805;28;20033;-66
2021/11/24 16:12:24;;;;;;;31.45;20.17;;;2.40;86.80;;;;;;5052319;28;20429;-67
2021/11/24 16:14:51;;;;;;;30.35;19.38;;;2.40;86.90;;;;;;5052364;28;20017;-66
2021/11/24 16:17:18;;;;;;;31.38;19.88;;;2.40;87.70;;;;;;5051045;28;20021;-69
2021/11/24 16:19:44;;;;;;;30.63;20.25;;;2.40;87.20;;;;;;5050773;28;20036;-69
2021/11/24 16:22:11;;;;;;;33.47;20.65;;;2.40;87.30;;;;;;5052171;28;20029;-67
2021/11/24 16:24:37;;;;;;;28.02;18.85;;;2.50;87.00;;;;;;5052203;28;20024;-67
2021/11/24 16:27:03;;;;;;;28.77;18.95;;;2.50;87.00;;;;;;5052119;28;20104;-67
2021/11/24 16:29:29;;;;;;;29.58;19.48;;;2.50;87.00;;;;;;5052184;28;20468;-67
2021/11/24 16:31:56;;;;;;;31.02;19.92;;;2.50;87.00;;;;;;5051924;28;20086;-66
2021/11/24 16:34:22;;;;;;;32.22;20.00;;;2.50;87.00;;;;;;5050428;28;20025;-66
2021/11/24 16:36:48;;;;;;;32.47;20.85;;;2.50;86.90;;;;;;5052050;28;20021;-67
2021/11/24 16:39:14;;;;;;;33.22;21.58;;;2.50;87.00;;;;;;5052044;28;20017;-66
2021/11/24 16:41:41;;;;;;;33.28;20.60;;;2.50;87.10;;;;;;5051882;28;20159;-67
2021/11/24 16:44:08;;;;;;;32.40;20.75;;;2.50;87.00;;;;;;5051703;28;20029;-66
2021/11/24 16:46:35;;;;;;;30.67;19.33;;;2.50;86.80;;;;;;5051389;28;20021;-66
2021/11/24 16:49:01;;;;;;;28.23;18.08;;;2.50;86.80;;;;;;5051796;28;20430;-67
2021/11/24 16:51:27;;;;;;;29.13;17.95;;;2.50;86.90;;;;;;5051798;28;20108;-67
2021/11/24 16:53:53;;;;;;;31.42;19.38;;;2.50;86.70;;;;;;5051981;28;20105;-66
2021/11/24 16:56:20;;;;;;;31.30;19.13;;;2.60;86.50;;;;;;5051977;28;20061;-68
2021/11/24 16:58:48;;;;;;;34.15;21.60;;;2.60;86.40;;;;;;5052244;28;20025;-67
2021/11/24 17:01:14;;;;;;;36.28;20.83;;;2.70;86.20;;;;;;5047188;28;20037;-68
2021/11/24 17:03:39;;;;;;;33.63;20.00;;;2.80;85.30;;;;;;5051888;28;20032;-66
2021/11/24 17:06:06;;;;;;;35.10;19.92;;;2.80;84.80;;;;;;5051651;28;20036;-67
2021/11/24 17:08:32;;;;;;;31.30;18.90;;;2.80;84.30;;;;;;5051584;28;20082;-66
2021/11/24 17:10:57;;;;;;;26.23;16.75;;;2.80;84.00;;;;;;5051328;28;20052;-67
2021/11/24 17:13:26;;;;;;;29.25;17.45;;;2.80;83.60;;;;;;5051662;28;20372;-68
2021/11/24 17:15:52;;;;;;;26.90;16.95;;;2.90;83.40;;;;;;5051595;28;20013;-68
2021/11/24 17:18:17;;;;;;;23.00;13.90;;;2.90;83.10;;;;;;5051483;28;20025;-67
2021/11/24 17:20:43;;;;;;;22.25;13.50;;;2.90;83.30;;;;;;5051334;28;20029;-67
2021/11/24 17:23:10;;;;;;;21.70;13.77;;;2.90;83.20;;;;;;5050215;28;20086;-68
2021/11/24 17:25:38;;;;;;;22.02;14.27;;;2.90;82.90;;;;;;5051531;28;20027;-68
2021/11/24 17:28:05;;;;;;;23.85;14.75;;;2.90;82.70;;;;;;5050116;28;20174;-67
2021/11/24 17:30:32;;;;;;;24.67;15.27;;;3.00;82.50;;;;;;5051259;28;20025;-66
2021/11/24 17:32:58;;;;;;;24.10;15.05;;;3.00;82.20;;;;;;5051148;28;20090;-68
2021/11/24 17:35:24;;;;;;;31.35;17.45;;;2.90;82.10;;;;;;5050094;28;20465;-66
2021/11/24 17:37:51;;;;;;;30.15;18.42;;;3.00;82.20;;;;;;5051119;28;20116;-67
2021/11/24 17:40:18;;;;;;;32.00;18.35;;;3.00;81.50;;;;;;5051138;28;20021;-66
2021/11/24 17:42:44;;;;;;;31.25;19.50;;;3.00;82.00;;;;;;5051212;28;20494;-67
2021/11/24 17:45:10;;;;;;;28.33;18.33;;;3.00;81.60;;;;;;5050822;28;20040;-66
2021/11/24 17:47:36;;;;;;;28.35;17.05;;;3.00;81.70;;;;;;5050776;28;20025;-66
2021/11/24 17:50:03;;;;;;;28.40;17.90;;;3.00;81.10;;;;;;5049757;28;20055;-67
2021/11/24 17:52:29;;;;;;;29.08;18.40;;;3.00;80.70;;;;;;5048638;28;20059;-70
2021/11/24 17:54:55;;;;;;;26.35;16.80;;;3.00;80.60;;;;;;5045423;28;20025;-67
2021/11/24 17:57:20;;;;;;;27.42;16.63;;;3.00;80.50;;;;;;5052568;28;20025;-67
2021/11/24 17:59:47;;;;;;;28.05;17.52;;;3.00;80.40;;;;;;5052945;28;20112;-66
2021/11/24 18:02:13;;;;;;;28.63;17.27;;;3.00;80.10;;;;;;5054940;28;20150;-65
2021/11/24 18:04:40;;;;;;;28.35;16.67;;;3.00;79.90;;;;;;5056190;28;20107;-66
2021/11/24 18:07:06;;;;;;;26.98;16.98;;;3.10;79.70;;;;;;5062414;28;20115;-67
2021/11/24 18:09:32;;;;;;;28.05;17.33;;;3.00;79.70;;;;;;5056584;28;20155;-67
2021/11/24 18:11:58;;;;;;;25.30;16.38;;;3.00;79.80;;;;;;5055453;28;20045;-68
2021/11/24 18:14:23;;;;;;;26.15;15.88;;;3.00;79.50;;;;;;5058759;28;20107;-66
2021/11/24 18:16:49;;;;;;;26.40;17.38;;;3.00;79.30;;;;;;5058076;28;20084;-67
2021/11/24 18:19:16;;;;;;;28.77;17.95;;;3.00;79.30;;;;;;5061433;28;20029;-65
2021/11/24 18:21:42;;;;;;;29.95;18.65;;;3.00;79.70;;;;;;5052892;28;20025;-67
2021/11/24 18:24:10;;;;;;;33.10;20.30;;;3.00;79.90;;;;;;5054490;28;20108;-68
2021/11/24 18:26:37;;;;;;;37.05;22.33;;;3.00;79.80;;;;;;5053761;28;20036;-67
2021/11/24 18:29:04;;;;;;;35.42;21.73;;;3.00;79.80;;;;;;5051928;28;20048;-69
2021/11/24 18:31:31;;;;;;;33.70;21.30;;;3.00;80.00;;;;;;5061378;28;20061;-66
2021/11/24 18:33:59;;;;;;;33.00;20.40;;;3.00;80.20;;;;;;5059618;28;20380;-65
2021/11/24 18:36:25;;;;;;;34.00;19.48;;;2.90;80.30;;;;;;5055385;28;20763;-69
2021/11/24 18:38:51;;;;;;;32.58;19.90;;;2.90;80.60;;;;;;5063557;28;20025;-69
2021/11/24 18:41:17;;;;;;;31.70;19.38;;;2.90;80.60;;;;;;5069199;28;20028;-67
2021/11/24 18:43:44;;;;;;;30.80;18.65;;;2.90;80.30;;;;;;5057043;28;20523;-67
2021/11/24 18:46:14;;;;;;;29.17;17.92;;;2.90;80.30;;;;;;5066713;28;20021;-67
2021/11/24 18:48:41;;;;;;;30.45;18.90;;;2.90;80.10;;;;;;5058127;28;20759;-68
2021/11/24 18:51:08;;;;;;;29.42;17.80;;;2.90;80.10;;;;;;5058696;28;20040;-64
2021/11/24 18:53:37;;;;;;;29.45;18.67;;;2.90;80.00;;;;;;5059962;28;20364;-67
2021/11/24 18:56:04;;;;;;;28.30;16.48;;;2.90;79.80;;;;;;5056885;28;20050;-66
2021/11/24 18:58:30;;;;;;;29.58;18.27;;;2.90;79.50;;;;;;5053981;28;20380;-67
2021/11/24 19:00:56;;;;;;;26.30;16.83;;;2.90;79.30;;;;;;5058315;28;20036;-70
2021/11/24 19:03:22;;;;;;;24.95;16.02;;;2.90;78.90;;;;;;5054096;28;20056;-69
2021/11/24 19:05:48;;;;;;;25.40;14.98;;;2.90;78.90;;;;;;5063505;28;20846;-66
2021/11/24 19:08:15;;;;;;;24.83;15.60;;;2.90;78.60;;;;;;5060092;28;20059;-68
2021/11/24 19:10:40;;;;;;;25.02;15.77;;;3.00;78.00;;;;;;5053215;28;20084;-66
2021/11/24 19:13:07;;;;;;;23.88;15.18;;;2.90;78.30;;;;;;5063721;28;20077;-65
2021/11/24 19:15:33;;;;;;;23.05;14.50;;;2.90;78.20;;;;;;5069004;28;20021;-66
2021/11/24 19:17:59;;;;;;;25.45;15.48;;;2.90;78.30;;;;;;5055568;28;20020;-64
2021/11/24 19:20:27;;;;;;;23.75;15.00;;;2.90;78.00;;;;;;5059704;28;20126;-66
2021/11/24 19:22:53;;;;;;;26.42;14.68;;;2.90;78.10;;;;;;5060331;28;20017;-66
2021/11/24 19:25:20;;;;;;;25.13;15.40;;;2.90;78.00;;;;;;5055678;28;20037;-66
2021/11/24 19:27:47;;;;;;;24.27;14.35;;;2.90;77.90;;;;;;5058133;28;20450;-67
2021/11/24 19:30:14;;;;;;;25.60;16.10;;;2.90;77.70;;;;;;5058988;28;20032;-69
2021/11/24 19:32:40;;;;;;;25.13;14.57;;;3.00;77.50;;;;;;5055009;28;20181;-69
2021/11/24 19:35:08;;;;;;;24.48;15.18;;;2.90;77.50;;;;;;5059921;28;20032;-68
2021/11/24 19:37:34;;;;;;;22.48;14.77;;;2.90;77.40;;;;;;5050883;28;20021;-65
2021/11/24 19:40:00;;;;;;;172.10;115.50;;;2.90;77.60;;;;;;5054362;28;20017;-64
2021/11/24 19:42:26;;;;;;;43.90;28.45;;;3.00;80.50;;;;;;5052216;28;20044;-67
2021/11/24 19:44:52;;;;;;;23.42;15.35;;;3.30;77.60;;;;;;5043233;28;20043;-67
2021/11/24 19:47:22;;;;;;;23.38;14.93;;;3.40;75.50;;;;;;5039701;28;20446;-66
2021/11/24 19:49:48;;;;;;;23.85;15.52;;;3.40;75.40;;;;;;5047484;28;20111;-67
2021/11/24 19:52:14;;;;;;;24.92;15.18;;;3.30;75.50;;;;;;5042743;28;21564;-64
2021/11/24 19:54:41;;;;;;;26.90;16.08;;;3.20;75.70;;;;;;5037181;28;20075;-66
2021/11/24 19:57:06;;;;;;;26.98;16.08;;;3.10;75.90;;;;;;5042514;28;20036;-65
2021/11/24 19:59:34;;;;;;;25.73;16.27;;;3.20;76.00;;;;;;5055688;28;20033;-62
2021/11/24 20:02:01;;;;;;;33.05;22.05;;;3.10;75.90;;;;;;5053957;28;20104;-62
2021/11/24 20:04:26;;;;;;;27.08;16.90;;;3.10;76.30;;;;;;5051832;28;20025;-62
2021/11/24 20:06:52;;;;;;;25.55;16.67;;;3.10;76.10;;;;;;5057633;28;20119;-63
2021/11/24 20:09:18;;;;;;;29.65;19.42;;;3.10;75.90;;;;;;5064323;28;20029;-61
2021/11/24 20:11:44;;;;;;;34.58;21.77;;;3.10;75.60;;;;;;5058633;28;20032;-62
2021/11/24 20:14:13;;;;;;;50.15;30.70;;;3.10;75.30;;;;;;5053317;28;20025;-62
2021/11/24 20:16:40;;;;;;;29.63;17.70;;;3.10;75.50;;;;;;5056507;28;20054;-63
2021/11/24 20:19:06;;;;;;;36.92;22.90;;;3.10;75.20;;;;;;5051343;28;20032;-61
2021/11/24 20:21:31;;;;;;;24.65;15.63;;;3.10;75.40;;;;;;5049990;28;20033;-61
2021/11/24 20:23:57;;;;;;;24.63;15.10;;;3.10;75.70;;;;;;5056309;28;20029;-60
2021/11/24 20:26:23;;;;;;;24.13;14.90;;;3.00;75.90;;;;;;5051629;28;20384;-60
2021/11/24 20:28:49;;;;;;;26.80;17.35;;;3.10;76.00;;;;;;5057244;28;20157;-62
2021/11/24 20:31:18;;;;;;;28.00;16.42;;;3.10;75.90;;;;;;5053917;28;21689;-61
2021/11/24 20:33:45;;;;;;;25.77;15.73;;;3.00;75.80;;;;;;5054487;28;20044;-63
2021/11/24 20:36:11;;;;;;;26.00;16.25;;;3.00;75.90;;;;;;5051775;28;20017;-62
2021/11/24 20:38:38;;;;;;;25.63;17.15;;;3.10;75.90;;;;;;5048347;28;20021;-62
2021/11/24 20:41:04;;;;;;;29.58;18.35;;;3.10;75.90;;;;;;5062491;28;20029;-62
2021/11/24 20:43:31;;;;;;;29.20;17.70;;;3.00;75.90;;;;;;5053801;28;20150;-61
2021/11/24 20:45:56;;;;;;;25.73;16.15;;;3.00;76.50;;;;;;5059494;28;20036;-62
2021/11/24 20:48:22;;;;;;;26.70;17.17;;;3.10;75.70;;;;;;5065128;28;20037;-64
2021/11/24 20:50:48;;;;;;;39.92;24.75;;;3.10;75.60;;;;;;5054371;28;20028;-65
2021/11/24 20:53:14;;;;;;;32.08;20.48;;;3.10;75.20;;;;;;5051501;28;20039;-66
2021/11/24 20:55:40;;;;;;;28.52;17.27;;;3.10;75.10;;;;;;5050423;28;20079;-65
2021/11/24 20:58:07;;;;;;;27.63;17.95;;;3.10;75.20;;;;;;5062925;28;20383;-67
2021/11/24 21:00:34;;;;;;;24.70;15.25;;;3.10;75.10;;;;;;5063762;28;20041;-65
2021/11/24 21:03:00;;;;;;;23.65;14.57;;;3.10;75.00;;;;;;5051131;28;20043;-64
2021/11/24 21:05:27;;;;;;;22.70;14.05;;;3.10;74.80;;;;;;5055449;28;20025;-67
2021/11/24 21:07:54;;;;;;;23.33;13.43;;;3.20;74.70;;;;;;5052092;28;20033;-64
2021/11/24 21:10:20;;;;;;;22.67;14.27;;;3.10;74.80;;;;;;5051983;28;20130;-66
2021/11/24 21:12:46;;;;;;;24.60;14.68;;;3.20;74.40;;;;;;5053002;28;20522;-64
2021/11/24 21:15:13;;;;;;;31.23;17.52;;;3.20;74.50;;;;;;5055593;28;20037;-66
2021/11/24 21:17:40;;;;;;;36.28;19.67;;;3.10;74.70;;;;;;5062076;28;20052;-65
2021/11/24 21:20:08;;;;;;;37.60;21.98;;;3.20;74.80;;;;;;5057450;28;20047;-64
2021/11/24 21:22:34;;;;;;;35.00;20.65;;;3.20;74.70;;;;;;5071754;28;20017;-65
2021/11/24 21:25:04;;;;;;;28.23;17.70;;;3.20;74.80;;;;;;5056167;28;20112;-63
2021/11/24 21:27:30;;;;;;;32.78;18.25;;;3.10;74.90;;;;;;5051001;28;20108;-64
2021/11/24 21:29:56;;;;;;;32.50;18.30;;;3.20;74.90;;;;;;5055889;28;20099;-64
2021/11/24 21:32:22;;;;;;;25.23;15.43;;;3.20;75.00;;;;;;5061539;28;20053;-65
2021/11/24 21:34:48;;;;;;;23.40;14.52;;;3.20;75.10;;;;;;5055654;28;20083;-63
2021/11/24 21:37:14;;;;;;;19.48;12.55;;;3.10;75.20;;;;;;5057490;28;20095;-65
2021/11/24 21:39:40;;;;;;;18.42;11.45;;;3.10;75.40;;;;;;5058350;28;20025;-65
2021/11/24 21:42:07;;;;;;;17.75;11.32;;;3.10;75.30;;;;;;5064966;28;20040;-64
2021/11/24 21:44:33;;;;;;;18.25;11.00;;;3.10;75.20;;;;;;5065145;28;20033;-65
2021/11/24 21:47:00;;;;;;;14.90;9.48;;;3.10;75.40;;;;;;5071503;28;20432;-63
2021/11/24 21:49:27;;;;;;;18.90;11.65;;;3.10;75.40;;;;;;5058517;28;20032;-65
2021/11/24 21:51:54;;;;;;;17.33;10.55;;;3.10;75.30;;;;;;5054557;28;20079;-64
2021/11/24 21:54:20;;;;;;;16.73;10.10;;;3.10;75.40;;;;;;5064794;28;20033;-64
2021/11/24 21:56:46;;;;;;;16.80;10.70;;;3.10;75.40;;;;;;5054425;28;20028;-64
2021/11/24 21:59:12;;;;;;;18.42;11.45;;;3.00;75.40;;;;;;5054881;28;20039;-64
2021/11/24 22:01:39;;;;;;;19.00;11.32;;;3.10;75.20;;;;;;5054056;28;20025;-66
2021/11/24 22:04:05;;;;;;;27.73;17.60;;;3.10;75.60;;;;;;5059100;28;20472;-68
2021/11/24 22:12:02;;;;;;;23.83;13.88;;;3.00;75.30;;;;;;5063722;28;20064;-62
2021/11/24 22:14:28;;;;;;;22.70;13.68;;;3.00;75.40;;;;;;5058636;28;20028;-63
2021/11/24 22:16:54;;;;;;;22.10;13.88;;;3.00;75.60;;;;;;5056684;28;20032;-64
2021/11/24 22:19:22;;;;;;;21.60;11.80;;;2.90;75.70;;;;;;5063917;28;20388;-64
2021/11/24 22:21:49;;;;;;;17.27;11.20;;;2.90;75.80;;;;;;5060624;28;20029;-63
2021/11/24 22:24:15;;;;;;;16.92;10.23;;;2.90;75.80;;;;;;5055827;28;20029;-63
2021/11/24 22:26:41;;;;;;;18.67;12.13;;;2.80;75.70;;;;;;5053947;28;20040;-64
2021/11/24 22:29:07;;;;;;;17.15;10.63;;;2.80;75.60;;;;;;5054216;28;20460;-64
2021/11/24 22:31:32;;;;;;;18.02;11.20;;;2.80;75.60;;;;;;5054379;28;20056;-63
2021/11/24 22:33:58;;;;;;;18.38;11.43;;;2.80;75.80;;;;;;5057015;28;20068;-63
2021/11/24 22:36:25;;;;;;;17.33;10.80;;;2.80;75.80;;;;;;5056745;28;20088;-63
2021/11/24 22:38:50;;;;;;;19.38;11.02;;;2.80;75.80;;;;;;5053296;28;20021;-63
2021/11/24 22:41:17;;;;;;;22.23;13.07;;;2.80;75.80;;;;;;5054018;28;20029;-65
2021/11/24 22:43:43;;;;;;;23.88;12.63;;;2.90;75.50;;;;;;5061640;28;20021;-65
2021/11/24 22:46:09;;;;;;;21.77;13.85;;;2.80;75.50;;;;;;5057028;28;20036;-65
2021/11/24 22:48:34;;;;;;;22.15;13.38;;;2.80;75.70;;;;;;5055335;28;20108;-63
2021/11/24 22:51:00;;;;;;;22.33;13.25;;;2.80;75.80;;;;;;5053574;28;20112;-63
2021/11/24 22:53:27;;;;;;;22.80;13.35;;;2.80;75.80;;;;;;5056399;28;20032;-63
2021/11/24 22:55:53;;;;;;;21.95;13.18;;;2.70;75.90;;;;;;5053543;28;20025;-65
2021/11/24 22:58:19;;;;;;;25.30;15.25;;;2.70;76.50;;;;;;5066133;28;20157;-62
2021/11/24 23:00:45;;;;;;;20.70;12.75;;;2.70;75.90;;;;;;5055467;28;20104;-63
2021/11/24 23:03:11;;;;;;;24.85;15.10;;;2.70;76.20;;;;;;5054498;28;20162;-65
2021/11/24 23:05:38;;;;;;;24.65;14.77;;;2.70;76.10;;;;;;5063660;28;20040;-64
2021/11/24 23:08:06;;;;;;;26.48;15.27;;;2.70;76.20;;;;;;5052046;28;20116;-65
2021/11/24 23:10:33;;;;;;;25.92;15.23;;;2.70;76.20;;;;;;5060272;28;20192;-64
2021/11/24 23:12:59;;;;;;;21.65;13.48;;;2.70;76.30;;;;;;5055777;28;20396;-64
2021/11/24 23:15:25;;;;;;;25.08;13.95;;;2.60;76.20;;;;;;5056265;28;20056;-66
2021/11/24 23:17:51;;;;;;;19.73;12.43;;;2.60;76.30;;;;;;5053963;28;20115;-65
2021/11/24 23:20:17;;;;;;;20.40;12.48;;;2.60;76.30;;;;;;5053316;28;20379;-65
2021/11/24 23:22:42;;;;;;;19.33;11.63;;;2.60;76.30;;;;;;5061986;28;20872;-64
2021/11/24 23:25:08;;;;;;;20.92;11.27;;;2.60;76.30;;;;;;5054439;28;20025;-65
2021/11/24 23:27:34;;;;;;;19.38;11.30;;;2.50;76.30;;;;;;5066261;28;20546;-67
2021/11/24 23:30:00;;;;;;;31.98;19.33;;;2.50;76.40;;;;;;5053261;28;20032;-65
2021/11/24 23:32:26;;;;;;;34.10;21.95;;;2.50;76.50;;;;;;5058563;28;20079;-65
2021/11/24 23:34:52;;;;;;;30.75;17.98;;;2.40;76.70;;;;;;5054950;28;20044;-64
2021/11/24 23:37:18;;;;;;;26.30;14.18;;;2.40;76.80;;;;;;5062579;28;20464;-68
2021/11/24 23:39:47;;;;;;;22.23;12.85;;;2.40;77.40;;;;;;5063483;28;20067;-67
2021/11/24 23:42:14;;;;;;;26.67;15.77;;;2.30;76.90;;;;;;5063460;28;20028;-66
2021/11/24 23:44:40;;;;;;;19.35;12.13;;;2.20;77.10;;;;;;5058483;28;20468;-63
2021/11/24 23:47:06;;;;;;;19.83;11.88;;;2.20;77.20;;;;;;5070783;28;20028;-65
2021/11/24 23:49:32;;;;;;;19.45;11.38;;;2.20;77.30;;;;;;5054627;28;20035;-64
2021/11/24 23:51:58;;;;;;;17.58;10.10;;;2.10;77.50;;;;;;5051761;28;20024;-63
2021/11/24 23:54:24;;;;;;;20.55;11.65;;;2.10;77.60;;;;;;5055277;28;20036;-64
2021/11/24 23:56:49;;;;;;;23.77;12.23;;;2.10;77.80;;;;;;5056609;28;20334;-64
2021/11/24 23:59:15;;;;;;;20.70;11.40;;;2.00;77.90;;;;;;5059144;28;20079;-63
